Kent, Oregon
Current Conditions -  °F | °C
As of 9:53 AM on Tuesday 21 Oct 2014 (Local Time) from KDLS Reporting Station
Clear Clear  
Wind Chill: 54°   Ceiling: Unl
Heat Index: 54°   Visibility: 10mi
Dew Point: 48°   Wind: 5mph
Humidity: 80%   Direction: 100°E
Pressure: 29.99"   Gusts: NA
Location:  45.2°N, 120.7°W
Report Text: KDLS 211653Z AUTO 10004KT 10SM CLR 12/09 A2999 RMK AO2 SLP154 T01220089
Loading
Personal Weather Stations






























Interactive Weather Map
Tropical Storm Tracking
New forecast layout! Learn more

10-Day Weather Forecast

Advertisements
Track Severe Weather on mobile